Time;durP1;ratioP1;P1;durP2;ratioP2;P2;SDS_P1;SDS_P2;PMS_P1;PMS_P2;Temp;Humidity;BMP_temperature;BMP_pressure;BME280_temperature;BME280_humidity;BME280_pressure;Samples;Min_cycle;Max_cycle;Signal;HPM_P1;HPM_P2
2022/06/09 00:00:36;;;;;;;6.50;5.65;;;;;;;14.16;78.38;99785.02;1733743;82;21032;-86
2022/06/09 00:03:15;;;;;;;7.53;5.72;;;;;;;14.13;78.37;99785.22;1714949;81;21139;-86
2022/06/09 00:05:44;;;;;;;8.13;4.92;;;;;;;14.08;78.29;99782.89;1714206;82;21048;-86
2022/06/09 00:08:12;;;;;;;6.42;5.55;;;;;;;14.05;78.40;99783.92;1730176;82;20992;-86
2022/06/09 00:10:44;;;;;;;6.25;5.65;;;;;;;14.01;78.50;99775.81;1708047;82;21075;-86
2022/06/09 00:13:14;;;;;;;6.83;5.62;;;;;;;14.01;78.67;99777.60;1730334;82;21043;-86
2022/06/09 00:15:43;;;;;;;6.20;5.25;;;;;;;14.00;78.88;99776.76;1715335;82;21141;-86
2022/06/09 00:18:17;;;;;;;5.90;5.30;;;;;;;14.02;78.82;99778.84;1721317;81;21066;-86
2022/06/09 00:20:43;;;;;;;5.67;5.07;;;;;;;13.97;78.65;99777.42;1709480;82;21027;-86
2022/06/09 00:23:13;;;;;;;6.17;5.58;;;;;;;13.95;78.82;99783.25;1732455;82;21051;-86
2022/06/09 00:25:42;;;;;;;6.53;5.10;;;;;;;13.93;78.94;99779.37;1738829;82;21054;-86
2022/06/09 00:28:10;;;;;;;5.78;5.28;;;;;;;13.92;78.99;99782.97;1717321;82;22125;-87
2022/06/09 00:30:37;;;;;;;6.83;4.83;;;;;;;13.91;79.03;99780.41;1724793;82;21110;-86
2022/06/09 00:33:05;;;;;;;6.42;5.10;;;;;;;13.89;79.03;99775.73;1739760;82;21070;-86
2022/06/09 00:35:32;;;;;;;6.15;5.55;;;;;;;13.84;79.13;99776.84;1718231;82;21446;-87
2022/06/09 00:38:00;;;;;;;9.18;5.47;;;;;;;13.84;79.18;99775.99;1739429;82;21572;-86
2022/06/09 00:40:27;;;;;;;6.00;5.05;;;;;;;13.81;79.12;99775.70;1719867;82;22424;-87
2022/06/09 00:42:55;;;;;;;6.17;5.47;;;;;;;13.78;79.13;99768.00;1738236;82;21056;-86
2022/06/09 00:45:33;;;;;;;6.87;5.90;;;;;;;13.75;79.35;99774.77;1738349;82;21540;-86
2022/06/09 00:48:23;;;;;;;7.28;4.90;;;;;;;13.74;79.38;99761.67;1722198;82;20913;-86
2022/06/09 00:50:56;;;;;;;;;;;;;;;13.74;79.47;99764.31;1715929;82;21643;-87
2022/06/09 00:53:29;;;;;;;7.05;5.47;;;;;;;13.71;79.84;99766.66;1738441;82;21131;-86
2022/06/09 00:55:59;;;;;;;6.05;5.45;;;;;;;13.70;79.77;99762.34;1739063;82;21680;-86
2022/06/09 00:58:29;;;;;;;5.40;4.83;;;;;;;13.67;79.73;99761.21;1729403;82;21034;-86
2022/06/09 01:01:01;;;;;;;5.67;4.95;;;;;;;13.66;79.66;99752.91;1709415;82;21057;-88
2022/06/09 01:03:55;;;;;;;8.03;5.40;;;;;;;13.63;79.78;99751.78;1729382;82;21066;-86
2022/06/09 01:06:27;;;;;;;8.65;5.08;;;;;;;13.64;79.92;99753.97;1725378;82;21573;-86
2022/06/09 01:09:03;;;;;;;6.87;5.03;;;;;;;13.61;79.96;99750.58;1725643;82;21034;-86
2022/06/09 01:11:30;;;;;;;6.83;5.20;;;;;;;13.58;79.93;99754.71;1718043;82;21076;-86
2022/06/09 01:14:01;;;;;;;5.90;5.15;;;;;;;13.58;80.12;99752.08;1714958;82;20977;-86
2022/06/09 01:17:09;;;;;;;6.37;5.28;;;;;;;13.61;80.28;99745.31;1734754;82;21549;-86
2022/06/09 01:19:50;;;;;;;5.37;4.87;;;;;;;13.59;80.17;99746.34;1738364;82;21092;-87
2022/06/09 01:22:58;;;;;;;8.95;5.85;;;;;;;13.55;80.15;99748.77;1726794;82;20996;-86
2022/06/09 01:26:02;;;;;;;6.60;5.67;;;;;;;13.55;80.43;99742.17;1715931;82;21039;-86
2022/06/09 01:28:40;;;;;;;6.83;6.22;;;;;;;13.56;80.48;99739.95;1737599;82;21003;-86
2022/06/09 01:31:48;;;;;;;6.80;6.08;;;;;;;13.51;80.22;99736.73;1684877;82;21287;-87
2022/06/09 01:34:39;;;;;;;6.42;5.78;;;;;;;13.46;80.36;99738.31;1736904;82;21524;-86
2022/06/09 01:37:20;;;;;;;6.70;6.00;;;;;;;13.45;80.46;99731.84;1715239;81;21099;-86
2022/06/09 01:39:57;;;;;;;7.58;6.87;;;;;;;13.41;80.26;99731.63;1714520;82;21015;-86
2022/06/09 01:42:44;;;;;;;8.15;6.92;;;;;;;13.36;80.40;99733.23;1730260;81;21051;-86
2022/06/09 01:45:39;;;;;;;8.98;7.17;;;;;;;13.36;80.78;99728.81;1663891;84;21067;-86
2022/06/09 01:48:17;;;;;;;7.85;6.95;;;;;;;13.36;80.69;99729.29;1650916;84;22173;-87
2022/06/09 01:51:14;;;;;;;8.63;7.50;;;;;;;13.35;80.86;99732.84;1664822;84;21626;-86
2022/06/09 01:54:06;;;;;;;8.68;7.28;;;;;;;13.34;80.62;99730.69;1667632;84;21139;-87
2022/06/09 01:56:48;;;;;;;8.05;7.25;;;;;;;13.30;80.59;99725.68;1673718;84;21109;-87
2022/06/09 01:59:40;;;;;;;8.63;7.37;;;;;;;13.25;80.83;99720.67;1680760;83;21781;-87
2022/06/09 02:02:33;;;;;;;8.35;7.37;;;;;;;13.21;80.77;99718.30;1656015;86;21574;-86
2022/06/09 02:05:32;;;;;;;9.03;7.33;;;;;;;13.20;80.83;99718.78;1655295;86;21136;-86
2022/06/09 02:08:30;;;;;;;8.63;7.55;;;;;;;13.18;80.90;99716.22;1655423;86;21674;-86
2022/06/09 02:11:37;;;;;;;;;;;;;;;;;;;;;
2022/06/09 02:14:04;;;;;;;7.45;6.75;;;;;;;13.20;81.18;99715.30;1652042;85;21079;-86
2022/06/09 02:16:50;;;;;;;10.25;7.55;;;;;;;13.18;81.08;99707.48;1654719;85;20956;-87
2022/06/09 02:19:30;;;;;;;8.90;7.85;;;;;;;13.15;81.16;99706.35;1655419;85;21053;-86
2022/06/09 02:22:12;;;;;;;15.28;8.70;;;;;;;13.15;81.26;99705.88;1686622;82;21257;-87
2022/06/09 02:24:57;;;;;;;9.30;8.20;;;;;;;13.14;81.58;99704.67;1718817;82;21055;-87
2022/06/09 02:27:31;;;;;;;9.85;8.85;;;;;;;13.18;81.67;99707.01;1698030;83;21528;-87
2022/06/09 02:30:09;;;;;;;10.50;8.05;;;;;;;13.16;81.41;99702.77;1681033;83;21986;-87
2022/06/09 02:33:05;;;;;;;9.50;7.58;;;;;;;13.12;81.50;99698.17;1726671;82;21031;-87
2022/06/09 02:35:49;;;;;;;9.35;8.30;;;;;;;13.13;81.51;99701.64;1705732;82;21083;-87
2022/06/09 02:38:31;;;;;;;10.78;9.68;;;;;;;13.11;81.45;99696.97;1716700;83;21679;-87
2022/06/09 02:41:06;;;;;;;9.68;8.68;;;;;;;13.09;81.86;99690.94;1705406;82;21691;-87
2022/06/09 02:43:48;;;;;;;9.35;8.45;;;;;;;13.12;81.89;99698.17;1716478;82;21343;-87
2022/06/09 02:46:32;;;;;;;10.45;9.03;;;;;;;13.16;82.26;99702.77;1724001;81;21537;-87
2022/06/09 02:49:11;;;;;;;9.23;8.33;;;;;;;13.18;82.14;99707.01;1723738;82;21486;-87
2022/06/09 02:51:49;;;;;;;9.15;8.33;;;;;;;13.19;81.81;99709.20;1744270;81;21061;-87
2022/06/09 02:54:27;;;;;;;10.40;9.40;;;;;;;13.13;81.68;99711.69;1711458;81;21049;-87
2022/06/09 02:57:10;;;;;;;10.65;8.85;;;;;;;13.10;81.79;99713.19;1712873;82;21045;-87
2022/06/09 03:02:24;;;;;;;9.33;8.28;;;;;;;13.07;81.83;99718.63;1719787;81;21503;-86
2022/06/09 03:04:54;;;;;;;10.58;9.58;;;;;;;13.06;82.04;99721.38;1702332;82;21015;-87
2022/06/09 03:07:24;;;;;;;10.35;8.75;;;;;;;13.10;82.33;99726.82;1700069;82;21067;-86
2022/06/09 03:09:55;;;;;;;11.12;10.03;;;;;;;13.12;82.24;99724.48;1709960;82;21078;-86
2022/06/09 03:12:24;;;;;;;10.88;9.78;;;;;;;13.14;82.36;99726.56;1715304;82;21062;-86
2022/06/09 03:14:51;;;;;;;11.30;9.83;;;;;;;13.15;82.35;99725.62;1711665;82;21012;-87
2022/06/09 03:17:25;;;;;;;11.18;9.88;;;;;;;13.15;82.42;99730.03;1706818;82;21064;-88
2022/06/09 03:19:52;;;;;;;11.70;10.50;;;;;;;13.15;82.51;99737.45;1729434;82;20991;-82
2022/06/09 03:22:19;;;;;;;10.43;9.45;;;;;;;13.15;82.50;99730.03;1718858;82;21140;-85
2022/06/09 03:24:56;;;;;;;11.57;10.48;;;;;;;13.18;82.91;99732.48;1735495;81;21578;-85
2022/06/09 03:27:20;;;;;;;11.43;10.32;;;;;;;13.21;82.91;99737.56;1730389;80;20995;-82
2022/06/09 03:29:52;;;;;;;11.43;10.23;;;;;;;13.24;82.96;99738.70;1753101;81;21057;-80
2022/06/09 03:32:19;;;;;;;12.45;10.30;;;;;;;13.23;82.71;99738.33;1709182;82;21292;-84
2022/06/09 03:34:46;;;;;;;11.93;9.90;;;;;;;13.23;82.93;99740.13;1730024;82;21111;-86
2022/06/09 03:37:15;;;;;;;10.95;9.85;;;;;;;13.25;82.98;99749.63;1711226;82;21004;-87
2022/06/09 03:39:43;;;;;;;11.43;10.25;;;;;;;13.25;82.86;99755.36;1732191;82;21691;-86
2022/06/09 03:42:10;;;;;;;12.05;10.85;;;;;;;13.24;82.94;99753.65;1731491;82;21035;-79
2022/06/09 03:44:38;;;;;;;12.03;10.82;;;;;;;13.27;83.26;99758.28;1732026;82;21046;-87
2022/06/09 03:47:18;;;;;;;10.58;9.48;;;;;;;13.28;83.35;99752.11;1707912;82;21620;-91
2022/06/09 03:49:47;;;;;;;11.28;9.95;;;;;;;13.29;83.47;99757.73;1687687;82;21051;-87
2022/06/09 03:52:14;;;;;;;11.35;9.53;;;;;;;13.32;83.44;99759.34;1708246;82;21043;-92
2022/06/09 03:54:41;;;;;;;11.88;9.80;;;;;;;13.34;83.66;99754.84;1714785;82;20996;-88
2022/06/09 03:57:18;;;;;;;16.48;10.63;;;;;;;13.38;83.77;99755.91;1710328;82;27181;-87
2022/06/09 03:59:58;;;;;;;11.22;10.03;;;;;;;13.44;84.18;99755.13;1708693;82;22106;-88
2022/06/09 04:02:33;;;;;;;11.63;10.43;;;;;;;13.52;84.46;99759.03;1703775;82;21051;-89
2022/06/09 04:05:04;;;;;;;11.20;10.08;;;;;;;13.57;84.50;99756.95;1729838;82;21074;-88
2022/06/09 04:07:41;;;;;;;11.15;10.05;;;;;;;13.64;84.58;99765.82;1728240;82;21007;-89
2022/06/09 04:10:26;;;;;;;11.28;10.13;;;;;;;13.68;84.64;99758.10;1700143;82;21070;-88
2022/06/09 04:13:01;;;;;;;12.75;10.23;;;;;;;13.73;84.83;99763.47;1711217;82;21054;-89
2022/06/09 04:15:31;;;;;;;11.15;9.38;;;;;;;13.81;85.02;99756.43;1714185;82;21011;-90
2022/06/09 04:18:00;;;;;;;11.73;10.53;;;;;;;13.88;85.08;99760.84;1721284;82;21056;-89
2022/06/09 04:20:31;;;;;;;;;;;;;;;13.93;85.14;99773.27;1704326;82;21515;-90
2022/06/09 04:23:05;;;;;;;11.12;9.95;;;;;;;13.99;85.67;99772.89;1715972;82;20477;-89
2022/06/09 04:25:40;;;;;;;13.18;9.50;;;;;;;14.08;85.70;99779.37;1716367;82;21024;-89
2022/06/09 04:28:10;;;;;;;11.57;10.48;;;;;;;14.18;86.08;99776.56;1701384;82;21541;-89
2022/06/09 04:30:38;;;;;;;11.80;10.60;;;;;;;14.28;86.26;99773.27;1705205;82;21044;-89
2022/06/09 04:33:13;;;;;;;12.55;11.25;;;;;;;14.39;86.41;99773.07;1712965;82;21553;-89
2022/06/09 04:35:47;;;;;;;14.30;11.40;;;;;;;14.47;86.36;99771.64;1710971;82;21097;-90
2022/06/09 04:38:18;;;;;;;12.13;10.90;;;;;;;14.54;86.27;99764.69;1718273;82;21135;-89
2022/06/09 04:40:51;;;;;;;12.60;11.35;;;;;;;14.61;86.36;99765.52;1710618;82;21055;-89
2022/06/09 04:43:28;;;;;;;12.55;11.33;;;;;;;14.67;86.36;99769.56;1731079;82;21063;-89
2022/06/09 04:46:03;;;;;;;13.03;11.78;;;;;;;14.71;86.45;99764.00;1718260;82;21481;-89
2022/06/09 04:48:31;;;;;;;14.20;12.70;;;;;;;14.81;86.57;99769.52;1720264;82;21015;-89
2022/06/09 04:51:07;;;;;;;15.65;13.93;;;;;;;14.89;86.75;99772.50;1731150;82;21232;-88
2022/06/09 04:53:43;;;;;;;15.65;14.00;;;;;;;15.00;86.94;99776.25;1728861;82;21494;-89
2022/06/09 04:56:27;;;;;;;15.72;13.90;;;;;;;15.10;87.16;99779.50;1712183;82;21140;-88
2022/06/09 04:58:59;;;;;;;15.90;14.28;;;;;;;15.22;87.24;99778.33;1718989;82;21022;-88
2022/06/09 05:01:42;;;;;;;15.90;14.30;;;;;;;15.31;87.36;99782.50;1730742;82;21051;-89
2022/06/09 05:04:17;;;;;;;15.83;14.15;;;;;;;15.42;87.44;99784.44;1730657;82;20928;-88
2022/06/09 05:06:54;;;;;;;18.07;15.03;;;;;;;15.53;87.46;99793.80;1728523;82;21098;-89
2022/06/09 05:09:25;;;;;;;16.23;14.63;;;;;;;15.62;87.54;99797.13;1725398;82;21086;-88
2022/06/09 05:11:56;;;;;;;15.70;14.07;;;;;;;15.72;87.64;99793.44;1714501;82;21017;-89
2022/06/09 05:14:40;;;;;;;18.73;16.77;;;;;;;15.81;87.63;99795.45;1708906;82;21517;-89
2022/06/09 05:17:27;;;;;;;18.32;16.42;;;;;;;15.91;87.60;99794.35;1758297;81;21087;-88
2022/06/09 05:19:57;;;;;;;17.90;16.00;;;;;;;16.01;87.70;99792.75;1713987;81;21108;-89
2022/06/09 05:22:40;;;;;;;18.05;15.83;;;;;;;16.13;87.76;99791.52;1721388;82;21078;-88
2022/06/09 05:25:12;;;;;;;18.73;16.82;;;;;;;16.24;87.77;99789.00;1717562;81;21043;-89
2022/06/09 05:27:58;;;;;;;17.32;15.60;;;;;;;16.35;87.83;99790.41;1730194;82;20987;-89
2022/06/09 05:30:34;;;;;;;17.90;16.10;;;;;;;16.47;87.97;99794.81;1739457;82;22327;-89
2022/06/09 05:33:13;;;;;;;17.55;15.75;;;;;;;16.60;87.92;99793.47;1710742;82;21281;-88
2022/06/09 05:35:53;;;;;;;17.55;15.43;;;;;;;16.69;87.93;99792.80;1715716;82;21059;-89
2022/06/09 05:47:25;;;;;;;17.17;15.38;;;;;;;17.16;87.66;99794.30;1727786;80;21458;-88
2022/06/09 05:50:10;;;;;;;18.10;15.90;;;;;;;17.29;87.50;99796.86;1634401;85;21942;-88
2022/06/09 05:52:51;;;;;;;17.80;16.00;;;;;;;17.39;87.43;99798.70;1694854;84;21027;-89
2022/06/09 05:58:11;;;;;;;17.00;15.18;;;;;;;17.60;87.56;99804.21;1695733;83;21338;-88
2022/06/09 06:00:48;;;;;;;17.17;15.48;;;;;;;17.69;87.32;99800.02;1702977;82;21063;-88
2022/06/09 06:03:22;;;;;;;17.10;15.40;;;;;;;17.76;87.00;99803.89;1708997;83;21072;-88
2022/06/09 06:08:40;;;;;;;16.77;15.15;;;;;;;17.87;86.59;99804.89;1695781;82;21142;-90
2022/06/09 06:11:17;;;;;;;17.62;15.88;;;;;;;17.94;86.60;99806.12;1720291;83;21533;-89
2022/06/09 06:14:01;;;;;;;16.52;14.78;;;;;;;18.02;86.55;99811.67;1708511;82;21052;-89
2022/06/09 06:16:25;;;;;;;17.55;15.70;;;;;;;18.11;86.71;99807.47;1690606;83;21088;-88
2022/06/09 06:19:06;;;;;;;15.78;14.23;;;;;;;18.19;86.77;99803.24;1669141;83;21104;-88
2022/06/09 06:21:45;;;;;;;16.40;14.73;;;;;;;18.30;86.70;99812.18;1685003;83;21083;-89
2022/06/09 06:24:23;;;;;;;16.93;15.00;;;;;;;18.39;86.59;99808.79;1711705;83;21144;-90
2022/06/09 06:26:57;;;;;;;16.75;14.95;;;;;;;18.47;86.46;99813.02;1716077;83;21047;-90
2022/06/09 06:29:33;;;;;;;17.42;15.68;;;;;;;18.56;86.41;99812.76;1697859;82;21028;-87
2022/06/09 06:32:04;;;;;;;15.72;14.15;;;;;;;18.67;86.37;99814.07;1680630;83;21024;-89
2022/06/09 06:34:31;;;;;;;15.98;14.43;;;;;;;18.76;86.17;99816.50;1637670;86;26814;-90
2022/06/09 06:37:04;;;;;;;;;;;;;;;18.80;86.02;99820.61;1677237;85;21951;-90
2022/06/09 06:39:31;;;;;;;15.78;14.18;;;;;;;18.86;85.90;99820.11;1664862;85;20225;-89
2022/06/09 06:42:02;;;;;;;16.27;14.50;;;;;;;18.91;85.60;99829.88;1689547;83;21063;-88
2022/06/09 06:44:31;;;;;;;16.35;14.53;;;;;;;18.94;85.27;99833.13;1679922;83;21080;-89
2022/06/09 06:46:58;;;;;;;16.73;15.05;;;;;;;19.00;85.17;99837.58;1720294;80;21003;-89
2022/06/09 06:49:25;;;;;;;16.32;14.73;;;;;;;19.04;84.98;99831.91;1785401;80;21133;-90
2022/06/09 06:51:53;;;;;;;16.97;15.38;;;;;;;19.09;84.79;99833.71;1751358;78;21031;-90
2022/06/09 06:54:20;;;;;;;16.27;14.68;;;;;;;19.15;84.85;99826.56;1771389;80;21094;-90
2022/06/09 06:56:48;;;;;;;16.62;14.83;;;;;;;19.21;84.70;99830.52;1764674;80;21545;-90
2022/06/09 06:59:15;;;;;;;16.27;14.58;;;;;;;19.27;84.80;99830.50;1748964;80;21030;-90
2022/06/09 07:01:42;;;;;;;17.50;15.80;;;;;;;19.34;84.65;99829.88;1787788;80;21103;-88
2022/06/09 07:04:09;;;;;;;16.42;14.80;;;;;;;19.41;84.30;99836.01;1748833;80;21047;-90
2022/06/09 07:06:37;;;;;;;17.45;15.65;;;;;;;19.41;83.83;99833.35;1781522;78;21022;-90
2022/06/09 07:09:04;;;;;;;16.70;15.00;;;;;;;19.42;83.85;99834.53;1782054;78;20975;-90
2022/06/09 07:11:31;;;;;;;17.90;16.15;;;;;;;19.48;83.86;99842.02;1751296;80;21023;-90
2022/06/09 07:13:59;;;;;;;17.95;15.65;;;;;;;19.50;83.58;99843.20;1787547;80;21115;-90
2022/06/09 07:16:26;;;;;;;16.32;14.63;;;;;;;19.48;83.38;99834.05;1772845;78;21034;-91
2022/06/09 07:18:54;;;;;;;16.42;14.90;;;;;;;19.50;83.44;99839.22;1751981;80;21035;-90
2022/06/09 07:21:21;;;;;;;17.17;15.32;;;;;;;19.53;83.45;99843.79;1787729;80;21038;-89
2022/06/09 07:23:50;;;;;;;17.60;15.75;;;;;;;19.56;83.41;99842.69;1760510;78;21102;-88
2022/06/09 07:26:18;;;;;;;17.73;15.80;;;;;;;19.60;83.21;99849.45;1737882;80;21168;-90
2022/06/09 07:28:45;;;;;;;16.97;15.32;;;;;;;19.59;83.15;99853.94;1755166;80;21047;-90
2022/06/09 07:31:13;;;;;;;18.57;16.52;;;;;;;19.64;83.23;99849.55;1770424;80;21567;-89
2022/06/09 07:33:41;;;;;;;19.40;17.50;;;;;;;19.65;82.91;99848.59;1787439;78;20991;-89
2022/06/09 07:36:14;;;;;;;20.45;18.45;;;;;;;19.59;82.69;99850.41;1787715;80;21038;-89
2022/06/09 07:38:42;;;;;;;20.92;18.07;;;;;;;19.54;82.50;99855.29;1787356;80;21299;-89
2022/06/09 07:41:10;;;;;;;21.10;18.80;;;;;;;19.45;82.34;99851.55;1781154;80;21018;-88
2022/06/09 07:43:38;;;;;;;21.95;19.80;;;;;;;19.35;82.06;99847.50;1783924;80;21497;-89
2022/06/09 07:46:06;;;;;;;21.12;19.02;;;;;;;19.24;82.33;99846.21;1767755;78;21091;-89
2022/06/09 07:48:33;;;;;;;22.15;19.87;;;;;;;19.20;82.58;99842.59;1760526;80;21003;-89
2022/06/09 07:51:02;;;;;;;21.17;19.12;;;;;;;19.17;82.74;99842.36;1761227;79;22005;-89
2022/06/09 07:53:29;;;;;;;20.82;18.67;;;;;;;19.16;83.15;99842.01;1745675;81;21536;-90
2022/06/09 07:55:56;;;;;;;20.70;18.62;;;;;;;19.21;83.45;99841.64;1772490;80;21032;-88
2022/06/09 07:58:23;;;;;;;20.05;18.10;;;;;;;19.25;83.57;99847.89;1769575;80;21027;-90
2022/06/09 08:00:51;;;;;;;20.15;17.98;;;;;;;19.30;83.55;99854.16;1774890;80;21063;-90
2022/06/09 08:03:22;;;;;;;20.43;18.32;;;;;;;19.34;83.52;99854.25;1768425;80;21120;-91
2022/06/09 08:05:50;;;;;;;19.95;17.95;;;;;;;19.39;83.82;99856.05;1761342;80;20991;-90
2022/06/09 08:08:19;;;;;;;20.62;18.12;;;;;;;19.45;83.84;99856.87;1722762;80;21482;-90
2022/06/09 08:10:48;;;;;;;19.23;17.23;;;;;;;19.50;83.79;99856.50;1762355;79;21257;-90
2022/06/09 08:13:17;;;;;;;19.23;17.07;;;;;;;19.54;83.81;99861.44;1776899;80;21052;-89
2022/06/09 08:15:45;;;;;;;18.25;16.37;;;;;;;19.58;83.54;99869.50;1755054;80;21135;-89
2022/06/09 08:18:12;;;;;;;19.55;17.57;;;;;;;19.59;83.50;99867.69;1732081;79;21069;-90
2022/06/09 08:20:43;;;;;;;18.23;16.42;;;;;;;19.63;83.50;99872.28;1755315;80;21031;-90
2022/06/09 08:23:15;;;;;;;17.77;15.88;;;;;;;19.66;83.45;99875.55;1766116;79;21035;-89
2022/06/09 08:25:45;;;;;;;18.52;16.55;;;;;;;19.69;83.40;99879.28;1768292;80;21537;-91
2022/06/09 08:28:13;;;;;;;;;;;;;;;19.73;83.20;99880.73;1778231;80;21098;-91
2022/06/09 08:30:40;;;;;;;16.37;14.65;;;;;;;19.76;83.53;99884.92;1739443;81;20178;-91
2022/06/09 08:33:08;;;;;;;16.97;15.18;;;;;;;19.79;83.13;99884.20;1708576;83;21506;-91
2022/06/09 08:35:36;;;;;;;16.95;15.23;;;;;;;19.82;83.29;99885.27;1706009;83;21061;-90
2022/06/09 08:38:05;;;;;;;18.65;16.20;;;;;;;19.86;82.91;99889.84;1716465;83;21068;-90
2022/06/09 08:41:19;;;;;;;16.95;15.18;;;;;;;19.92;83.07;99884.48;1720954;83;21146;-90
2022/06/09 08:44:12;;;;;;;16.70;14.85;;;;;;;20.02;83.15;99884.08;1712510;82;21115;-89
2022/06/09 08:46:50;;;;;;;16.70;15.18;;;;;;;20.17;83.09;99888.57;1699565;83;21060;-89
2022/06/09 08:49:44;;;;;;;17.40;15.60;;;;;;;20.25;82.73;99886.94;1732015;82;21528;-90
2022/06/09 08:52:29;;;;;;;17.27;15.65;;;;;;;20.31;82.50;99892.71;1689370;83;21020;-90
2022/06/09 08:54:58;;;;;;;17.85;16.05;;;;;;;20.39;82.61;99887.58;1707318;83;21234;-90
2022/06/09 08:57:33;;;;;;;20.40;16.00;;;;;;;20.48;82.43;99892.96;1705569;82;21503;-89
2022/06/09 09:00:01;;;;;;;18.00;16.30;;;;;;;20.58;82.20;99895.69;1690347;83;21060;-89
2022/06/09 09:02:36;;;;;;;18.92;16.95;;;;;;;20.70;82.21;99889.77;1694763;81;20980;-89
2022/06/09 09:05:14;;;;;;;16.40;14.83;;;;;;;20.80;82.05;99884.00;1726902;81;21561;-90
2022/06/09 09:07:50;;;;;;;19.27;15.10;;;;;;;20.93;81.68;99889.94;1732485;81;21085;-89
2022/06/09 09:10:48;;;;;;;16.80;15.20;;;;;;;21.05;81.33;99892.00;1722925;81;20945;-90
2022/06/09 09:13:42;;;;;;;17.50;15.70;;;;;;;21.17;81.01;99894.05;1729261;82;21629;-89
2022/06/09 09:16:34;;;;;;;16.85;15.13;;;;;;;21.30;80.97;99891.98;1715775;81;21054;-91
2022/06/09 09:19:15;;;;;;;18.17;16.37;;;;;;;21.41;80.50;99889.71;1701834;82;21056;-89
2022/06/09 09:22:12;;;;;;;18.75;16.95;;;;;;;21.44;79.83;99892.09;1705212;83;21145;-89
2022/06/09 09:25:07;;;;;;;18.55;16.65;;;;;;;21.50;79.70;99889.36;1692272;81;21100;-90
2022/06/09 09:28:00;;;;;;;16.73;15.15;;;;;;;21.55;79.76;99895.13;1729305;82;21080;-91
2022/06/09 09:30:51;;;;;;;16.93;15.32;;;;;;;21.72;79.84;99893.08;1728969;81;21534;-88
2022/06/09 09:33:21;;;;;;;16.25;14.55;;;;;;;21.81;79.18;99894.09;1704659;81;21497;-92
2022/06/09 09:35:52;;;;;;;15.70;14.20;;;;;;;21.86;78.79;99887.81;1712566;81;22014;-90
2022/06/09 09:38:22;;;;;;;16.42;14.20;;;;;;;21.94;78.42;99892.45;1684707;84;21031;-89
2022/06/09 09:40:55;;;;;;;15.20;13.90;;;;;;;22.02;78.27;99888.57;1708731;82;21070;-90
2022/06/09 09:43:26;;;;;;;15.18;13.68;;;;;;;22.11;77.77;99893.54;1739441;82;21003;-91
2022/06/09 09:45:56;;;;;;;15.40;13.50;;;;;;;22.18;77.44;99901.37;1739369;82;21020;-91
2022/06/09 09:48:32;;;;;;;15.28;13.78;;;;;;;22.27;77.24;99894.66;1739569;81;21173;-90
2022/06/09 09:51:05;;;;;;;14.03;12.73;;;;;;;22.39;77.07;99903.36;1739316;82;20990;-90
2022/06/09 09:53:46;;;;;;;15.35;13.75;;;;;;;22.54;76.87;99904.23;1739713;81;21030;-90
2022/06/09 09:56:21;;;;;;;14.60;13.18;;;;;;;22.71;76.90;99908.29;1719453;82;21524;-90
2022/06/09 09:58:57;;;;;;;14.25;12.85;;;;;;;22.90;76.42;99907.88;1739658;82;21106;-90
2022/06/09 10:08:35;;;;;;;14.60;13.28;;;;;;;23.03;75.78;99909.73;1739399;81;21310;-90
2022/06/09 10:09:52;;;;;;;13.88;12.68;;;;;;;23.35;74.25;99915.93;1754094;80;21102;-92
2022/06/09 10:12:32;;;;;;;16.37;14.68;;;;;;;23.34;73.92;99916.94;1776780;80;21010;-91
2022/06/09 10:15:14;;;;;;;16.52;15.03;;;;;;;23.32;73.59;99915.40;1751914;80;21796;-90
2022/06/09 10:18:10;;;;;;;15.15;13.78;;;;;;;23.23;73.46;99909.63;1761508;80;21489;-92
2022/06/09 10:20:44;;;;;;;15.98;14.43;;;;;;;23.16;73.35;99906.69;1769054;80;20999;-91
2022/06/09 10:23:44;;;;;;;17.30;15.83;;;;;;;23.15;73.60;99910.37;1776250;80;21082;-91
2022/06/09 10:26:21;;;;;;;16.52;15.00;;;;;;;23.11;73.21;99919.19;1738994;79;21481;-91
2022/06/09 10:29:00;;;;;;;16.48;14.83;;;;;;;22.94;72.68;99914.59;1752267;79;21128;-91
2022/06/09 10:31:45;;;;;;;13.65;12.35;;;;;;;22.84;72.81;99911.14;1756407;79;20980;-91
2022/06/09 10:34:39;;;;;;;13.03;11.78;;;;;;;22.83;72.59;99917.45;1752128;79;21015;-91
2022/06/09 10:37:43;;;;;;;14.30;12.90;;;;;;;22.77;72.13;99918.05;1774806;79;21449;-91
2022/06/09 10:40:25;;;;;;;16.67;13.60;;;;;;;22.75;72.14;99929.37;1777138;79;21034;-91
2022/06/09 10:42:58;;;;;;;16.80;15.23;;;;;;;22.70;72.16;99924.48;1768771;80;21792;-90
2022/06/09 10:45:52;;;;;;;15.90;14.45;;;;;;;22.62;72.14;99925.70;1771645;80;20865;-91
2022/06/09 10:57:30;;;;;;;16.75;15.20;;;;;;;22.81;72.00;99936.79;1761103;80;21893;-87
2022/06/09 11:00:05;;;;;;;14.05;12.60;;;;;;;22.94;72.22;99938.64;1753959;80;21029;-90
2022/06/09 11:02:34;;;;;;;14.28;12.98;;;;;;;23.02;71.71;99939.27;1773489;80;21120;-89
2022/06/09 11:05:04;;;;;;;14.63;13.22;;;;;;;23.18;71.82;99938.14;1767546;80;20987;-95
2022/06/09 11:07:52;;;;;;;13.62;12.33;;;;;;;23.31;71.00;99942.64;1781979;80;21030;-86
2022/06/09 11:10:52;;;;;;;13.20;12.03;;;;;;;23.37;70.70;99944.70;1783364;79;21105;-84
2022/06/09 11:13:56;;;;;;;12.73;11.60;;;;;;;23.41;70.41;99942.56;1782748;79;21020;-89
2022/06/09 11:17:07;;;;;;;12.45;11.25;;;;;;;23.45;70.05;99941.79;1764188;80;21066;-84
2022/06/09 11:20:13;;;;;;;12.43;11.28;;;;;;;23.47;69.75;99945.13;1757875;80;21513;-86
2022/06/09 11:23:20;;;;;;;12.85;11.50;;;;;;;23.50;69.49;99943.48;1757400;80;39976;-83
2022/06/09 11:26:23;;;;;;;11.90;10.82;;;;;;;23.48;68.94;99944.99;1776233;80;21126;-86
2022/06/09 11:29:23;;;;;;;11.05;10.10;;;;;;;23.49;68.68;99947.16;1767104;80;21917;-87
2022/06/09 11:32:11;;;;;;;12.25;10.45;;;;;;;23.53;68.58;99944.05;1781562;80;21006;-85
2022/06/09 11:35:04;;;;;;;12.63;11.33;;;;;;;23.52;68.25;99941.01;1782410;80;21363;-83
2022/06/09 11:38:00;;;;;;;11.63;10.65;;;;;;;23.53;68.08;99938.70;1781968;80;20968;-78
2022/06/09 11:40:45;;;;;;;11.28;10.18;;;;;;;23.52;67.92;99942.34;1740682;80;22190;-83
2022/06/09 11:43:37;;;;;;;10.90;10.00;;;;;;;23.48;67.66;99942.82;1740108;80;21116;-81
2022/06/09 11:46:23;;;;;;;9.98;9.08;;;;;;;23.45;67.70;99942.63;1762525;80;21066;-84
2022/06/09 11:48:55;;;;;;;10.20;9.30;;;;;;;23.42;67.32;99938.05;1771485;79;21011;-79
2022/06/09 11:51:26;;;;;;;9.73;8.83;;;;;;;23.32;67.26;99940.30;1751974;81;21005;-79
2022/06/09 11:54:01;;;;;;;9.23;8.33;;;;;;;23.26;67.01;99938.73;1740152;80;21169;-86
2022/06/09 11:56:43;;;;;;;8.03;7.33;;;;;;;23.18;67.05;99935.97;1760611;80;21594;-83
2022/06/09 11:59:21;;;;;;;9.68;7.55;;;;;;;23.15;66.95;99929.08;1748186;80;21042;-83
2022/06/09 12:02:17;;;;;;;8.43;7.70;;;;;;;23.14;66.91;99930.92;1759249;80;21359;-86
2022/06/09 12:05:27;;;;;;;7.92;7.20;;;;;;;23.13;66.95;99931.05;1759580;81;21098;-83
2022/06/09 12:08:18;;;;;;;8.10;6.62;;;;;;;23.19;67.12;99932.29;1761021;81;21849;-83
2022/06/09 12:11:07;;;;;;;6.95;6.35;;;;;;;23.24;66.76;99931.35;1760628;81;21024;-82
2022/06/09 12:14:16;;;;;;;6.50;5.65;;;;;;;23.34;66.57;99932.98;1768981;81;21042;-84
2022/06/09 12:17:11;;;;;;;5.53;4.80;;;;;;;23.60;66.26;99928.22;1740109;81;20935;-83
2022/06/09 12:19:57;;;;;;;6.20;5.00;;;;;;;23.87;65.77;99938.05;1758725;81;21499;-83
2022/06/09 12:22:45;;;;;;;4.95;4.28;;;;;;;24.10;65.18;99925.51;1768088;80;22123;-84
2022/06/09 12:25:21;;;;;;;4.95;4.10;;;;;;;24.35;64.56;99931.38;1722920;81;21061;-83
2022/06/09 12:27:51;;;;;;;4.33;3.92;;;;;;;24.46;63.76;99933.83;1727174;81;21001;-85
2022/06/09 12:30:37;;;;;;;4.67;4.17;;;;;;;24.55;63.22;99941.91;1763143;80;21555;-81
2022/06/09 12:33:31;;;;;;;4.55;3.75;;;;;;;24.61;62.91;99943.95;1754643;80;21057;-82
2022/06/09 12:36:09;;;;;;;7.22;3.22;;;;;;;24.70;62.82;99943.02;1742264;81;22116;-84
2022/06/09 12:38:48;;;;;;;3.77;3.37;;;;;;;24.71;62.11;99949.55;1764804;81;21219;-83
2022/06/09 12:41:25;;;;;;;4.45;3.80;;;;;;;24.65;61.77;99946.67;1769859;80;21023;-84
2022/06/09 12:44:00;;;;;;;5.28;3.37;;;;;;;24.67;61.96;99947.36;1743763;80;21073;-82